Time;durP1;ratioP1;P1;durP2;ratioP2;P2;SDS_P1;SDS_P2;PMS_P1;PMS_P2;Temp;Humidity;BMP_temperature;BMP_pressure;BME280_temperature;BME280_humidity;BME280_pressure;Samples;Min_cycle;Max_cycle;Signal;HPM_P1;HPM_P2
2022/04/10 00:00:07;;;;;;;;;;;;;;;21.66;27.63;96674.84;4979134;28;1131;-74
2022/04/10 00:02:38;;;;;;;;;;;;;;;21.45;28.01;96670.97;4997543;28;1902;-73
2022/04/10 00:05:03;;;;;;;;;;;;;;;21.17;28.30;96659.72;4998113;28;1085;-74
2022/04/10 00:07:29;;;;;;;;;;;;;;;21.12;28.35;96666.00;4956133;29;1405;-73
2022/04/10 00:09:54;;;;;;;;;;;;;;;20.88;28.84;96667.91;4956621;29;956;-74
2022/04/10 00:12:19;;;;;;;;;;;;;;;21.37;28.05;96667.72;4956407;29;938;-74
2022/04/10 00:14:45;;;;;;;;;;;;;;;21.62;28.00;96675.03;4956240;29;1024;-73
2022/04/10 00:17:11;;;;;;;;;;;;;;;21.56;27.70;96671.28;4956635;29;1003;-74
2022/04/10 00:19:36;;;;;;;;;;;;;;;21.26;28.40;96668.19;4956531;29;963;-73
2022/04/10 00:22:02;;;;;;;;;;;;;;;21.03;28.50;96672.47;4956559;29;947;-73
2022/04/10 00:24:28;;;;;;;;;;;;;;;21.21;27.96;96668.81;4956296;29;1985;-73
2022/04/10 00:26:53;;;;;;;;;;;;;;;21.12;28.55;96671.66;4956119;29;1011;-74
2022/04/10 00:29:19;;;;;;;;;;;;;;;21.54;27.76;96663.25;4937024;29;1295;-74
2022/04/10 00:31:45;;;;;;;;;;;;;;;21.63;27.96;96670.94;4898936;29;1232;-73
2022/04/10 00:34:10;;;;;;;;;;;;;;;21.40;27.79;96674.47;4899043;29;1068;-74
2022/04/10 00:36:36;;;;;;;;;;;;;;;21.16;28.42;96669.47;4899144;29;1005;-74
2022/04/10 00:39:01;;;;;;;;;;;;;;;21.07;28.42;96669.47;4926596;29;1072;-73
2022/04/10 00:41:27;;;;;;;;;;;;;;;20.95;28.72;96668.41;4936695;29;1066;-74
2022/04/10 00:44:01;;;;;;;;;;;;;;;20.99;28.61;96662.59;4936847;29;1919;-73
2022/04/10 00:46:27;;;;;;;;;;;;;;;20.98;28.79;96655.34;4936898;29;984;-74
2022/04/10 00:48:52;;;;;;;;;;;;;;;21.46;27.99;96649.94;4936796;29;1546;-74
2022/04/10 00:54:01;;;;;;;;;;;;;;;21.49;27.91;96661.06;4936491;29;1049;-74
2022/04/10 00:56:29;;;;;;;;;;;;;;;21.21;28.27;96651.84;4898680;29;1053;-74
2022/04/10 00:58:55;;;;;;;;;;;;;;;21.09;28.48;96644.34;4898557;29;961;-74
2022/04/10 01:01:20;;;;;;;;;;;;;;;20.96;28.57;96652.22;4879681;29;1261;-74
2022/04/10 01:03:46;;;;;;;;;;;;;;;20.86;29.07;96653.47;4862465;29;1903;-73
2022/04/10 01:06:11;;;;;;;;;;;;;;;20.95;28.79;96651.44;4870881;29;1111;-74
2022/04/10 01:08:37;;;;;;;;;;;;;;;21.07;28.50;96649.69;4898037;29;1295;-74
2022/04/10 01:11:02;;;;;;;;;;;;;;;20.91;28.87;96650.03;4898287;29;1158;-74
2022/04/10 01:13:28;;;;;;;;;;;;;;;21.17;28.34;96656.09;4898350;29;1326;-74
2022/04/10 01:15:53;;;;;;;;;;;;;;;21.55;27.72;96658.38;4898589;29;1174;-73
2022/04/10 01:18:20;;;;;;;;;;;;;;;21.62;27.51;96652.41;4898370;29;985;-73
2022/04/10 01:20:45;;;;;;;;;;;;;;;21.41;27.86;96657.03;4898147;29;1268;-73
2022/04/10 01:23:11;;;;;;;;;;;;;;;21.21;28.34;96668.81;4898310;29;1990;-74
2022/04/10 01:25:38;;;;;;;;;;;;;;;21.06;28.54;96662.25;4879090;29;1103;-73
2022/04/10 01:28:12;;;;;;;;;;;;;;;20.83;28.89;96651.59;4879406;29;1497;-73
2022/04/10 01:30:38;;;;;;;;;;;;;;;20.98;28.76;96644.03;4879382;29;971;-73
2022/04/10 01:33:05;;;;;;;;;;;;;;;21.33;28.33;96648.06;4882279;29;1044;-74
2022/04/10 01:35:30;;;;;;;;;;;;;;;21.65;27.72;96650.63;4897880;29;1286;-74
2022/04/10 01:37:56;;;;;;;;;;;;;;;21.46;27.81;96644.28;4901198;29;1338;-73
2022/04/10 01:40:25;;;;;;;;;;;;;;;21.10;28.52;96645.91;4916808;29;1150;-74
2022/04/10 01:42:52;;;;;;;;;;;;;;;21.11;28.63;96639.00;4916491;29;1910;-73
2022/04/10 01:45:18;;;;;;;;;;;;;;;21.02;28.49;96641.84;4916883;29;961;-73
2022/04/10 01:47:43;;;;;;;;;;;;;;;21.05;28.58;96644.50;4916686;29;1052;-73
2022/04/10 01:50:11;;;;;;;;;;;;;;;20.97;28.56;96648.13;4919846;29;1303;-74
2022/04/10 01:52:36;;;;;;;;;;;;;;;21.29;28.52;96653.06;4935489;29;1124;-73
2022/04/10 01:55:02;;;;;;;;;;;;;;;21.63;27.93;96650.34;4903770;29;1246;-74
2022/04/10 01:57:28;;;;;;;;;;;;;;;21.49;27.82;96655.41;4935399;29;1179;-74
2022/04/10 01:59:53;;;;;;;;;;;;;;;21.21;28.04;96649.03;4935457;29;1815;-73
2022/04/10 02:02:19;;;;;;;;;;;;;;;21.03;28.74;96651.88;4935342;29;1449;-73
2022/04/10 02:04:44;;;;;;;;;;;;;;;20.90;28.60;96645.63;4935650;29;1919;-74
2022/04/10 02:07:10;;;;;;;;;;;;;;;20.94;28.92;96654.75;4919695;29;1108;-74
2022/04/10 02:09:36;;;;;;;;;;;;;;;21.30;28.37;96651.88;4919649;29;1287;-73
2022/04/10 02:12:02;;;;;;;;;;;;;;;21.69;27.69;96656.91;4916881;29;1019;-74
2022/04/10 02:14:27;;;;;;;;;;;;;;;21.47;27.88;96651.50;4885287;29;1183;-74
2022/04/10 02:16:53;;;;;;;;;;;;;;;21.19;28.17;96648.72;4901709;29;1341;-73
2022/04/10 02:19:20;;;;;;;;;;;;;;;20.96;28.78;96636.03;4900987;29;1137;-74
2022/04/10 02:21:45;;;;;;;;;;;;;;;21.12;28.35;96626.41;4901481;29;1161;-73
2022/04/10 02:24:13;;;;;;;;;;;;;;;21.52;28.09;96622.56;4905912;29;1911;-73
2022/04/10 02:26:38;;;;;;;;;;;;;;;21.73;27.67;96630.00;4901209;29;1445;-74
2022/04/10 02:29:04;;;;;;;;;;;;;;;21.72;27.54;96624.84;4901334;29;1007;-74
2022/04/10 02:31:29;;;;;;;;;;;;;;;21.19;28.32;96620.44;4901011;29;1111;-73
2022/04/10 02:33:55;;;;;;;;;;;;;;;21.14;28.34;96618.25;4901236;29;1049;-74
2022/04/10 02:36:22;;;;;;;;;;;;;;;21.08;28.10;96620.91;4919845;29;1759;-74
2022/04/10 02:38:48;;;;;;;;;;;;;;;20.92;28.76;96624.09;4919917;29;1048;-73
2022/04/10 02:41:13;;;;;;;;;;;;;;;20.89;29.32;96619.41;4919851;29;1006;-74
2022/04/10 02:43:39;;;;;;;;;;;;;;;21.32;28.35;96623.88;4914827;29;2001;-74
2022/04/10 02:46:05;;;;;;;;;;;;;;;21.82;27.34;96624.31;4905624;29;1289;-73
2022/04/10 02:48:36;;;;;;;;;;;;;;;21.28;28.09;96628.88;4900480;29;1250;-74
2022/04/10 02:51:04;;;;;;;;;;;;;;;21.10;28.66;96626.13;4869607;29;1309;-74
2022/04/10 02:53:30;;;;;;;;;;;;;;;20.92;28.66;96628.97;4900894;29;1021;-74
2022/04/10 02:55:56;;;;;;;;;;;;;;;21.03;28.54;96641.34;4885222;29;1194;-74
2022/04/10 02:58:21;;;;;;;;;;;;;;;21.56;27.94;96643.00;4889826;29;1248;-73
2022/04/10 03:00:47;;;;;;;;;;;;;;;21.74;27.63;96631.56;4886487;29;1221;-73
2022/04/10 03:03:14;;;;;;;;;;;;;;;21.52;27.63;96639.53;4846668;29;1919;-74
2022/04/10 03:05:39;;;;;;;;;;;;;;;21.30;28.21;96649.03;4903776;29;1524;-73
2022/04/10 03:08:05;;;;;;;;;;;;;;;21.09;28.39;96655.66;4919080;29;1003;-74
2022/04/10 03:10:31;;;;;;;;;;;;;;;21.09;28.39;96658.50;4938212;29;1517;-73
2022/04/10 03:12:57;;;;;;;;;;;;;;;20.98;28.56;96664.59;4919404;29;1410;-73
2022/04/10 03:15:22;;;;;;;;;;;;;;;21.55;27.66;96667.69;4919415;29;1036;-74
2022/04/10 03:17:48;;;;;;;;;;;;;;;21.78;27.30;96671.81;4919139;29;1309;-74
2022/04/10 03:20:14;;;;;;;;;;;;;;;21.59;27.39;96675.97;4924398;29;1321;-74
2022/04/10 03:22:40;;;;;;;;;;;;;;;21.17;28.29;96679.50;4940697;29;1989;-73
2022/04/10 03:25:06;;;;;;;;;;;;;;;21.21;28.00;96687.84;4861418;29;1104;-73
2022/04/10 03:27:31;;;;;;;;;;;;;;;21.21;28.01;96697.13;4862661;29;1877;-73
2022/04/10 03:29:57;;;;;;;;;;;;;;;21.08;28.26;96682.34;4862885;29;1019;-74
2022/04/10 03:32:23;;;;;;;;;;;;;;;20.99;28.57;96679.56;4862980;29;952;-73
2022/04/10 03:34:49;;;;;;;;;;;;;;;21.01;28.48;96671.38;4846093;29;1822;-73
2022/04/10 03:37:14;;;;;;;;;;;;;;;21.05;28.21;96677.66;4852360;29;1379;-74
2022/04/10 03:39:40;;;;;;;;;;;;;;;21.11;28.41;96675.75;4853069;29;1240;-74
2022/04/10 03:42:07;;;;;;;;;;;;;;;21.53;27.60;96677.88;4813791;29;1227;-74
2022/04/10 03:44:33;;;;;;;;;;;;;;;21.74;27.35;96693.84;4825731;29;1985;-73
2022/04/10 03:46:58;;;;;;;;;;;;;;;21.27;27.78;96700.88;4825465;29;1679;-73
2022/04/10 03:49:24;;;;;;;;;;;;;;;21.10;28.13;96710.97;4843874;29;1510;-73
2022/04/10 03:51:50;;;;;;;;;;;;;;;21.07;28.22;96709.06;4843616;29;1080;-74
2022/04/10 03:54:15;;;;;;;;;;;;;;;21.06;28.23;96721.66;4843840;29;1075;-73
2022/04/10 03:56:41;;;;;;;;;;;;;;;21.44;27.92;96714.69;4903524;29;1065;-73
2022/04/10 03:59:08;;;;;;;;;;;;;;;21.76;27.10;96730.19;4918167;29;1152;-73
2022/04/10 04:01:34;;;;;;;;;;;;;;;21.43;27.48;96721.63;4933881;29;1466;-74
2022/04/10 04:03:59;;;;;;;;;;;;;;;21.25;27.96;96714.72;4918138;29;2008;-73
2022/04/10 04:06:25;;;;;;;;;;;;;;;21.19;27.98;96716.63;4902540;29;1211;-74
2022/04/10 04:08:51;;;;;;;;;;;;;;;20.99;28.23;96713.50;4902598;29;1185;-73
2022/04/10 04:11:17;;;;;;;;;;;;;;;20.94;28.36;96714.91;4902484;29;1099;-73
2022/04/10 04:13:43;;;;;;;;;;;;;;;20.95;28.55;96715.69;4918496;29;906;-73
2022/04/10 04:16:09;;;;;;;;;;;;;;;21.07;28.32;96709.06;4902280;29;1184;-73
2022/04/10 04:18:35;;;;;;;;;;;;;;;21.38;27.81;96706.06;4887959;29;1523;-73
2022/04/10 04:21:02;;;;;;;;;;;;;;;21.71;27.18;96706.16;4866565;29;1461;-73
2022/04/10 04:23:28;;;;;;;;;;;;;;;21.22;28.06;96704.34;4889959;29;1981;-73
2022/04/10 04:25:54;;;;;;;;;;;;;;;21.20;28.14;96709.69;4898999;29;1173;-73
2022/04/10 04:28:20;;;;;;;;;;;;;;;20.91;28.54;96700.91;4913623;29;1190;-73
2022/04/10 04:30:46;;;;;;;;;;;;;;;21.31;28.27;96701.53;4930792;29;932;-73
2022/04/10 04:33:12;;;;;;;;;;;;;;;21.78;27.39;96708.63;4936530;29;1417;-73
2022/04/10 04:35:38;;;;;;;;;;;;;;;22.01;26.81;96700.66;4935130;29;1110;-73
2022/04/10 04:38:04;;;;;;;;;;;;;;;21.24;27.88;96696.19;4939810;29;1097;-73
2022/04/10 04:40:31;;;;;;;;;;;;;;;21.03;28.26;96697.13;4936642;29;1105;-73
2022/04/10 04:42:57;;;;;;;;;;;;;;;21.10;28.28;96702.47;4920819;29;1910;-73
2022/04/10 04:45:25;;;;;;;;;;;;;;;21.03;28.46;96697.13;4920688;29;1310;-73
2022/04/10 04:47:59;;;;;;;;;;;;;;;20.88;28.90;96696.19;4920789;29;1251;-73
2022/04/10 04:50:25;;;;;;;;;;;;;;;21.51;28.17;96688.91;4929174;28;1295;-73
2022/04/10 04:52:51;;;;;;;;;;;;;;;21.68;27.90;96701.44;4939581;29;1712;-73
2022/04/10 04:55:17;;;;;;;;;;;;;;;21.45;28.24;96693.63;4955929;28;860;-73
2022/04/10 04:57:43;;;;;;;;;;;;;;;21.21;28.73;96690.69;4943189;28;1179;-73
2022/04/10 05:00:11;;;;;;;;;;;;;;;21.06;28.92;96679.22;4974882;28;1459;-74
2022/04/10 05:02:43;;;;;;;;;;;;;;;21.16;28.97;96671.50;4943866;28;1907;-74
2022/04/10 05:05:09;;;;;;;;;;;;;;;21.23;28.98;96683.28;4992161;28;1119;-74
2022/04/10 05:07:35;;;;;;;;;;;;;;;21.63;28.47;96687.16;4977869;28;1159;-74
2022/04/10 05:10:01;;;;;;;;;;;;;;;21.79;28.16;96689.59;4978052;28;1238;-73
2022/04/10 05:12:28;;;;;;;;;;;;;;;21.31;28.55;96684.56;4977734;28;1411;-74
2022/04/10 05:14:54;;;;;;;;;;;;;;;21.07;28.92;96686.44;4977783;28;1111;-74
2022/04/10 05:17:21;;;;;;;;;;;;;;;21.11;28.82;96680.63;4977578;28;1422;-73
2022/04/10 05:19:49;;;;;;;;;;;;;;;21.04;28.92;96681.75;4977683;28;1156;-73
2022/04/10 05:22:15;;;;;;;;;;;;;;;21.07;29.42;96677.97;4977628;28;1256;-74
2022/04/10 05:24:48;;;;;;;;;;;;;;;21.58;28.21;96680.06;4977432;28;1902;-74
2022/04/10 05:27:13;;;;;;;;;;;;;;;21.63;28.06;96682.25;4955118;29;1466;-74
2022/04/10 05:29:39;;;;;;;;;;;;;;;21.28;28.72;96676.19;4939086;29;1286;-74
2022/04/10 05:32:05;;;;;;;;;;;;;;;21.11;28.75;96672.94;4955179;28;1163;-74
2022/04/10 05:34:30;;;;;;;;;;;;;;;21.04;28.82;96685.38;4954824;29;1162;-73
2022/04/10 05:36:56;;;;;;;;;;;;;;;20.90;29.18;96705.00;4971292;28;1023;-74
2022/04/10 05:39:22;;;;;;;;;;;;;;;20.96;28.99;96711.59;4922917;29;1331;-73
2022/04/10 05:41:50;;;;;;;;;;;;;;;21.35;28.36;96700.56;4938963;29;1266;-74
2022/04/10 05:44:16;;;;;;;;;;;;;;;21.67;27.80;96697.03;4919672;29;1907;-73
2022/04/10 05:46:42;;;;;;;;;;;;;;;21.55;27.96;96692.34;4934940;29;883;-73
2022/04/10 05:49:08;;;;;;;;;;;;;;;21.30;28.11;96688.66;4935882;29;1118;-73
2022/04/10 05:51:34;;;;;;;;;;;;;;;21.14;28.34;96683.31;4919493;29;1200;-73
2022/04/10 05:54:00;;;;;;;;;;;;;;;21.08;28.72;96685.19;4919654;29;1137;-74
2022/04/10 05:56:29;;;;;;;;;;;;;;;21.06;28.47;96676.41;4904498;29;1441;-73
2022/04/10 05:58:55;;;;;;;;;;;;;;;20.92;28.88;96680.63;4916647;29;1250;-73
2022/04/10 06:01:20;;;;;;;;;;;;;;;21.27;28.51;96674.63;4900875;29;1152;-73
2022/04/10 06:03:48;;;;;;;;;;;;;;;21.55;27.80;96675.34;4885656;29;1903;-73
2022/04/10 06:06:17;;;;;;;;;;;;;;;21.52;27.75;96671.44;4897611;29;1381;-73
2022/04/10 06:08:51;;;;;;;;;;;;;;;21.15;28.48;96665.06;4897724;29;1425;-74
2022/04/10 06:11:17;;;;;;;;;;;;;;;20.99;28.45;96668.25;4873663;29;1076;-73
2022/04/10 06:13:42;;;;;;;;;;;;;;;21.02;28.24;96667.28;4860497;29;952;-74
2022/04/10 06:16:13;;;;;;;;;;;;;;;21.10;28.23;96664.94;4903257;29;949;-74
2022/04/10 06:18:41;;;;;;;;;;;;;;;21.05;28.61;96660.69;4935489;29;1202;-73
2022/04/10 06:21:07;;;;;;;;;;;;;;;21.11;28.72;96664.44;4935064;29;1896;-73
2022/04/10 06:23:33;;;;;;;;;;;;;;;21.50;27.73;96670.34;4934904;29;1907;-74
2022/04/10 06:26:07;;;;;;;;;;;;;;;21.67;27.37;96670.78;4920284;29;1239;-74
2022/04/10 06:28:33;;;;;;;;;;;;;;;21.88;27.47;96668.97;4919398;29;1166;-74
2022/04/10 06:31:03;;;;;;;;;;;;;;;21.53;27.73;96660.91;4935405;29;1264;-74
2022/04/10 06:33:32;;;;;;;;;;;;;;;21.44;28.19;96663.75;4935129;29;1413;-74
2022/04/10 06:35:58;;;;;;;;;;;;;;;21.35;27.87;96666.59;4922512;29;1128;-74
2022/04/10 06:38:24;;;;;;;;;;;;;;;21.18;28.46;96672.59;4990966;28;1401;-74
2022/04/10 06:40:57;;;;;;;;;;;;;;;21.12;28.57;96668.06;4976939;28;1412;-74
2022/04/10 06:43:25;;;;;;;;;;;;;;;21.02;28.74;96670.91;4976724;28;1982;-74
2022/04/10 06:45:56;;;;;;;;;;;;;;;21.03;28.73;96668.84;4992806;28;976;-74
2022/04/10 06:48:27;;;;;;;;;;;;;;;20.98;28.62;96675.13;4954177;29;1278;-74
2022/04/10 06:50:52;;;;;;;;;;;;;;;21.10;28.38;96674.19;4954335;28;1228;-74
2022/04/10 06:53:24;;;;;;;;;;;;;;;21.27;28.50;96672.59;4953949;29;1489;-73
2022/04/10 06:55:51;;;;;;;;;;;;;;;21.67;27.73;96665.91;4954245;29;1279;-74
2022/04/10 06:58:19;;;;;;;;;;;;;;;21.57;27.76;96662.31;4955120;28;1244;-74
2022/04/10 07:00:46;;;;;;;;;;;;;;;21.30;28.18;96649.03;4957686;29;1352;-74
2022/04/10 07:03:13;;;;;;;;;;;;;;;21.16;28.29;96658.16;4957815;29;1906;-74
2022/04/10 07:05:39;;;;;;;;;;;;;;;20.95;28.43;96656.31;4957544;29;1121;-74
2022/04/10 07:08:09;;;;;;;;;;;;;;;20.96;28.64;96661.47;4957543;29;1487;-74
2022/04/10 07:10:36;;;;;;;;;;;;;;;20.91;28.94;96655.66;4957578;29;1064;-74
2022/04/10 07:13:03;;;;;;;;;;;;;;;20.85;28.71;96654.75;4928988;29;1254;-73
2022/04/10 07:15:29;;;;;;;;;;;;;;;20.98;28.84;96656.13;4941437;28;1156;-74
2022/04/10 07:17:56;;;;;;;;;;;;;;;21.47;27.97;96657.94;4922200;29;1369;-74
2022/04/10 07:20:23;;;;;;;;;;;;;;;21.89;27.38;96665.63;4941389;29;1137;-73
2022/04/10 07:25:33;;;;;;;;;;;;;;;21.20;28.40;96661.59;4919050;29;1071;-73
2022/04/10 07:27:58;;;;;;;;;;;;;;;21.08;28.71;96671.03;4919225;29;1074;-74
2022/04/10 07:30:30;;;;;;;;;;;;;;;21.07;28.47;96681.56;4903334;29;1154;-73
2022/04/10 07:33:01;;;;;;;;;;;;;;;21.11;28.61;96698.38;4903159;29;1173;-75
2022/04/10 07:35:29;;;;;;;;;;;;;;;20.98;28.67;96712.69;4918713;29;1410;-73
2022/04/10 07:37:59;;;;;;;;;;;;;;;20.88;28.84;96704.66;4918864;29;1170;-74
2022/04/10 07:40:24;;;;;;;;;;;;;;;20.80;28.95;96713.47;4899874;29;1211;-74
2022/04/10 07:42:51;;;;;;;;;;;;;;;20.79;29.08;96720.41;4900031;29;1980;-75
2022/04/10 07:48:14;;;;;;;;;;;;;;;21.75;27.51;96714.44;4880169;29;1203;-74
2022/04/10 07:50:39;;;;;;;;;;;;;;;21.62;27.58;96726.00;4918708;29;1098;-74
2022/04/10 07:53:07;;;;;;;;;;;;;;;21.34;28.33;96728.06;4922821;29;1453;-74
2022/04/10 07:55:35;;;;;;;;;;;;;;;21.16;28.57;96728.88;4956687;29;1327;-74
2022/04/10 07:58:05;;;;;;;;;;;;;;;21.10;28.44;96742.06;4975860;28;1187;-74
2022/04/10 08:00:32;;;;;;;;;;;;;;;21.02;28.53;96746.47;4902274;29;1569;-74
2022/04/10 08:03:01;;;;;;;;;;;;;;;20.96;28.82;96749.13;4917952;29;1910;-74
2022/04/10 08:06:02;;;;;;;;;;;;;;;20.99;28.66;96742.56;4880761;29;962;-74
2022/04/10 08:08:30;;;;;;;;;;;;;;;20.98;28.91;96740.16;4880915;29;959;-74
2022/04/10 08:10:56;;;;;;;;;;;;;;;21.54;27.95;96734.00;4880016;29;1127;-73
2022/04/10 08:13:21;;;;;;;;;;;;;;;21.80;28.00;96725.91;4880499;29;1069;-72
2022/04/10 08:15:48;;;;;;;;;;;;;;;21.36;28.27;96725.56;4880835;29;1018;-74
2022/04/10 08:18:13;;;;;;;;;;;;;;;21.08;29.11;96733.25;4875786;29;1029;-74
2022/04/10 08:20:39;;;;;;;;;;;;;;;20.99;29.00;96738.94;4862116;29;1020;-73
2022/04/10 08:23:05;;;;;;;;;;;;;;;21.18;28.96;96737.66;4861676;29;1976;-74
2022/04/10 08:25:30;;;;;;;;;;;;;;;21.18;28.80;96751.00;4861942;29;1029;-74
2022/04/10 08:27:56;;;;;;;;;;;;;;;21.17;29.25;96753.06;4861539;29;1142;-73
2022/04/10 08:30:21;;;;;;;;;;;;;;;21.49;28.47;96745.19;4863305;29;1039;-74
2022/04/10 08:32:47;;;;;;;;;;;;;;;21.66;28.45;96748.44;4925786;29;1004;-73
2022/04/10 08:35:12;;;;;;;;;;;;;;;21.40;28.64;96750.84;4937071;29;1023;-73
2022/04/10 08:37:38;;;;;;;;;;;;;;;21.24;28.91;96741.44;4937109;29;980;-74
2022/04/10 08:40:04;;;;;;;;;;;;;;;21.14;29.37;96739.88;4958137;28;1133;-75
2022/04/10 08:42:29;;;;;;;;;;;;;;;21.14;29.60;96731.41;4994844;28;1055;-75
2022/04/10 08:44:55;;;;;;;;;;;;;;;21.05;29.56;96729.34;4974872;28;1910;-74
2022/04/10 08:47:21;;;;;;;;;;;;;;;21.12;29.53;96733.88;4975248;28;1010;-73
2022/04/10 08:49:46;;;;;;;;;;;;;;;21.18;29.48;96729.16;4974914;28;1047;-73
2022/04/10 08:52:12;;;;;;;;;;;;;;;21.07;29.58;96729.66;4955563;29;955;-73
2022/04/10 08:54:37;;;;;;;;;;;;;;;21.38;29.42;96733.59;4955805;29;1215;-73
2022/04/10 08:57:03;;;;;;;;;;;;;;;21.58;29.04;96736.69;4939786;29;937;-74
2022/04/10 08:59:29;;;;;;;;;;;;;;;21.58;28.80;96734.63;4955777;29;1024;-73
2022/04/10 09:01:54;;;;;;;;;;;;;;;21.30;29.57;96733.91;4955360;29;1013;-74
2022/04/10 09:04:20;;;;;;;;;;;;;;;21.19;29.57;96732.78;4955496;29;1911;-75
2022/04/10 09:07:02;;;;;;;;;;;;;;;21.11;29.92;96737.97;4955469;29;1011;-75
2022/04/10 09:09:28;;;;;;;;;;;;;;;21.05;29.94;96728.56;4955242;29;1048;-74
2022/04/10 09:11:54;;;;;;;;;;;;;;;21.05;29.74;96728.56;4971768;28;1023;-75
2022/04/10 09:14:23;;;;;;;;;;;;;;;21.15;29.55;96727.31;4974738;28;1045;-75
2022/04/10 09:17:06;;;;;;;;;;;;;;;20.93;29.89;96732.31;5008916;28;1124;-74
2022/04/10 09:19:36;;;;;;;;;;;;;;;21.25;30.03;96730.91;5013676;28;942;-74
2022/04/10 09:22:18;;;;;;;;;;;;;;;21.48;29.29;96743.63;5013616;28;966;-74
2022/04/10 09:25:02;;;;;;;;;;;;;;;21.54;29.14;96731.19;4996779;28;1993;-75
2022/04/10 09:27:34;;;;;;;;;;;;;;;21.26;29.71;96727.59;5013319;28;1053;-74
2022/04/10 09:30:00;;;;;;;;;;;;;;;21.23;29.86;96727.75;5014998;28;1068;-74
2022/04/10 09:32:44;;;;;;;;;;;;;;;21.16;29.80;96740.19;5016022;28;1096;-74
2022/04/10 09:35:11;;;;;;;;;;;;;;;21.02;30.12;96730.28;5015877;28;1096;-75
2022/04/10 09:37:42;;;;;;;;;;;;;;;21.14;29.94;96724.94;5015794;28;1070;-74
2022/04/10 09:40:23;;;;;;;;;;;;;;;21.08;29.85;96733.25;5015852;28;1594;-74
2022/04/10 09:42:49;;;;;;;;;;;;;;;21.23;29.84;96733.41;5015973;28;981;-75
2022/04/10 09:45:41;;;;;;;;;;;;;;;21.55;29.43;96731.97;5015647;28;1973;-75
2022/04/10 09:48:32;;;;;;;;;;;;;;;21.84;28.97;96734.25;5013772;28;1442;-75
2022/04/10 09:50:58;;;;;;;;;;;;;;;21.31;29.85;96729.03;5025577;28;1242;-74
2022/04/10 09:53:26;;;;;;;;;;;;;;;21.30;29.81;96722.59;5024422;28;1538;-75
2022/04/10 09:55:55;;;;;;;;;;;;;;;21.22;30.27;96715.66;4984174;28;1559;-75
2022/04/10 09:58:21;;;;;;;;;;;;;;;21.16;30.40;96720.38;4954380;29;1575;-75
2022/04/10 10:00:47;;;;;;;;;;;;;;;21.14;30.48;96717.25;4934915;29;1528;-75
2022/04/10 10:03:13;;;;;;;;;;;;;;;21.06;30.47;96730.13;4935249;29;1984;-75
2022/04/10 10:05:38;;;;;;;;;;;;;;;21.18;30.38;96715.03;4935243;29;1582;-75
2022/04/10 10:08:04;;;;;;;;;;;;;;;21.00;30.46;96709.41;4934838;29;1481;-74
2022/04/10 10:10:30;;;;;;;;;;;;;;;21.17;30.08;96707.81;4934868;29;1577;-75
2022/04/10 10:12:56;;;;;;;;;;;;;;;21.41;30.15;96707.19;4935223;29;1564;-75
2022/04/10 10:15:22;;;;;;;;;;;;;;;21.72;29.33;96704.88;4896273;29;2107;-74
2022/04/10 10:17:47;;;;;;;;;;;;;;;21.50;29.66;96707.13;4897432;29;1047;-74
2022/04/10 10:20:13;;;;;;;;;;;;;;;21.20;30.21;96711.75;4913175;29;1086;-75
2022/04/10 10:22:38;;;;;;;;;;;;;;;21.24;30.09;96712.34;4913018;29;1079;-74
2022/04/10 10:25:07;;;;;;;;;;;;;;;21.39;29.93;96713.28;4897159;29;1910;-74
2022/04/10 10:27:38;;;;;;;;;;;;;;;21.14;29.97;96710.78;4912909;29;989;-74
2022/04/10 10:30:18;;;;;;;;;;;;;;;21.12;30.32;96694.28;4933558;29;1574;-75
2022/04/10 10:32:47;;;;;;;;;;;;;;;21.12;30.65;96708.44;4954331;28;1023;-75
2022/04/10 10:35:13;;;;;;;;;;;;;;;21.69;29.76;96708.66;4958330;29;1016;-74
2022/04/10 10:37:57;;;;;;;;;;;;;;;21.78;29.52;96708.63;4948954;28;1194;-74
2022/04/10 10:40:22;;;;;;;;;;;;;;;21.43;30.19;96713.13;4977744;28;958;-75
2022/04/10 10:42:48;;;;;;;;;;;;;;;21.39;30.08;96718.16;4977559;28;1002;-75
2022/04/10 10:45:33;;;;;;;;;;;;;;;21.34;29.98;96713.94;4979405;28;1914;-75
2022/04/10 10:48:17;;;;;;;;;;;;;;;21.22;30.01;96724.13;5038588;28;899;-74
2022/04/10 10:50:42;;;;;;;;;;;;;;;21.07;30.48;96731.69;5038647;28;1224;-74
2022/04/10 10:53:08;;;;;;;;;;;;;;;21.37;30.48;96732.78;5016118;28;1227;-75
2022/04/10 10:55:43;;;;;;;;;;;;;;;21.65;30.01;96733.50;5016337;28;1012;-75
2022/04/10 10:58:08;;;;;;;;;;;;;;;21.79;29.50;96723.56;5016476;28;1183;-74
2022/04/10 11:00:37;;;;;;;;;;;;;;;21.37;29.84;96734.84;5016268;28;1018;-74
2022/04/10 11:03:02;;;;;;;;;;;;;;;21.23;30.24;96742.69;5016291;28;1979;-75
2022/04/10 11:05:29;;;;;;;;;;;;;;;21.00;30.56;96749.00;5015820;28;1021;-74
2022/04/10 11:08:04;;;;;;;;;;;;;;;21.13;30.37;96752.44;5016118;28;1044;-74
2022/04/10 11:10:30;;;;;;;;;;;;;;;20.96;30.69;96748.34;5015999;28;1358;-74
2022/04/10 11:13:01;;;;;;;;;;;;;;;20.99;30.54;96745.38;5015951;28;1056;-74
2022/04/10 11:15:30;;;;;;;;;;;;;;;21.43;30.25;96747.09;5016022;28;996;-74
2022/04/10 11:17:56;;;;;;;;;;;;;;;21.75;29.47;96740.72;5015658;28;1106;-75
2022/04/10 11:20:22;;;;;;;;;;;;;;;21.79;29.07;96751.88;5016009;28;976;-74
2022/04/10 11:22:48;;;;;;;;;;;;;;;21.28;29.84;96753.34;5015591;28;998;-74
2022/04/10 11:25:16;;;;;;;;;;;;;;;21.13;30.05;96751.66;5015501;28;1987;-74
2022/04/10 11:27:48;;;;;;;;;;;;;;;21.16;29.92;96745.84;5016020;28;980;-75
2022/04/10 11:30:14;;;;;;;;;;;;;;;21.03;30.49;96753.69;4982851;28;1003;-75
2022/04/10 11:32:44;;;;;;;;;;;;;;;21.07;30.38;96754.31;5015640;28;1053;-74
2022/04/10 11:35:19;;;;;;;;;;;;;;;21.08;30.09;96761.53;5015648;28;1067;-74
2022/04/10 11:37:46;;;;;;;;;;;;;;;21.09;30.05;96768.78;5015681;28;1047;-74
2022/04/10 11:40:12;;;;;;;;;;;;;;;21.43;29.87;96767.69;5015576;28;986;-74
2022/04/10 11:42:37;;;;;;;;;;;;;;;21.63;29.78;96772.84;5015623;28;1151;-74
2022/04/10 11:45:03;;;;;;;;;;;;;;;21.56;29.41;96773.19;5013947;28;1914;-74
2022/04/10 11:47:28;;;;;;;;;;;;;;;21.38;30.00;96767.53;5015675;28;1053;-75
2022/04/10 11:49:54;;;;;;;;;;;;;;;21.32;29.55;96771.00;5015284;28;1173;-74
2022/04/10 11:52:21;;;;;;;;;;;;;;;21.14;30.05;96759.69;4976448;28;1066;-75
2022/04/10 11:54:46;;;;;;;;;;;;;;;21.84;29.03;96760.50;4976050;28;1121;-74
2022/04/10 11:57:11;;;;;;;;;;;;;;;22.01;28.71;96768.63;4976227;28;896;-74
2022/04/10 11:59:38;;;;;;;;;;;;;;;21.63;29.16;96760.75;4976228;28;1086;-74
2022/04/10 12:02:04;;;;;;;;;;;;;;;21.31;29.71;96757.34;4956572;29;977;-75
2022/04/10 12:04:29;;;;;;;;;;;;;;;21.21;29.67;96756.53;4956669;29;1914;-75
2022/04/10 12:07:08;;;;;;;;;;;;;;;21.03;29.94;96765.00;4956487;29;974;-74
2022/04/10 12:09:34;;;;;;;;;;;;;;;20.94;30.26;96762.97;4956803;29;963;-74
2022/04/10 12:11:59;;;;;;;;;;;;;;;21.12;30.11;96750.84;4940268;29;1047;-74
2022/04/10 12:14:25;;;;;;;;;;;;;;;21.10;29.94;96755.44;4956667;29;931;-75
2022/04/10 12:16:54;;;;;;;;;;;;;;;21.03;30.63;96753.69;4956540;29;1029;-74
2022/04/10 12:19:35;;;;;;;;;;;;;;;21.66;29.62;96766.25;4956556;29;945;-75
2022/04/10 12:22:10;;;;;;;;;;;;;;;21.64;29.38;96763.09;4908628;29;995;-75
2022/04/10 12:24:38;;;;;;;;;;;;;;;21.43;29.58;96769.72;4994855;28;1914;-75
2022/04/10 12:27:05;;;;;;;;;;;;;;;21.26;29.85;96770.03;4955986;29;1035;-74
2022/04/10 12:29:30;;;;;;;;;;;;;;;21.22;29.83;96765.78;4917422;29;1029;-74
2022/04/10 12:31:56;;;;;;;;;;;;;;;21.11;29.92;96760.59;4901923;29;1111;-75
2022/04/10 12:34:21;;;;;;;;;;;;;;;21.12;30.03;96762.19;4934068;29;1034;-74
2022/04/10 12:36:48;;;;;;;;;;;;;;;21.51;29.96;96765.34;4917939;29;1122;-74
2022/04/10 12:39:28;;;;;;;;;;;;;;;21.68;29.22;96772.19;4918034;29;991;-74
2022/04/10 12:41:58;;;;;;;;;;;;;;;21.43;29.88;96778.22;4917220;29;1953;-74
2022/04/10 12:44:23;;;;;;;;;;;;;;;21.36;29.83;96787.03;4917631;29;1973;-74
2022/04/10 12:46:49;;;;;;;;;;;;;;;21.23;30.17;96778.66;4917935;29;933;-75
2022/04/10 12:49:15;;;;;;;;;;;;;;;21.17;30.08;96775.69;4917930;29;1119;-74
2022/04/10 12:51:53;;;;;;;;;;;;;;;21.31;29.99;96774.31;4917632;29;1103;-74
2022/04/10 12:54:19;;;;;;;;;;;;;;;21.57;29.88;96766.25;4917645;29;993;-74
2022/04/10 12:56:50;;;;;;;;;;;;;;;21.69;29.64;96765.28;4917399;29;1001;-75
2022/04/10 12:59:18;;;;;;;;;;;;;;;21.87;29.21;96770.13;4972146;28;1312;-75
2022/04/10 13:01:49;;;;;;;;;;;;;;;21.38;29.88;96762.66;5027187;28;1518;-74
2022/04/10 13:04:25;;;;;;;;;;;;;;;21.39;29.69;96763.44;5026603;28;1906;-75
2022/04/10 13:06:52;;;;;;;;;;;;;;;21.19;30.10;96750.56;5005419;28;2270;-75